createdAt,value
2022-12-08T00:01:36.263Z,4.30
2022-12-08T00:04:05.503Z,4.37
2022-12-08T00:06:54.366Z,5.20
2022-12-08T00:09:25.979Z,5.80
2022-12-08T00:11:58.855Z,5.13
2022-12-08T00:14:30.056Z,4.70
2022-12-08T00:16:59.205Z,6.87
2022-12-08T00:19:27.967Z,5.33
2022-12-08T00:21:58.293Z,6.07
2022-12-08T00:24:31.984Z,5.60
2022-12-08T00:27:00.108Z,5.77
2022-12-08T00:29:28.494Z,5.03
2022-12-08T00:31:56.809Z,6.00
2022-12-08T00:34:25.274Z,5.60
2022-12-08T00:36:53.396Z,5.03
2022-12-08T00:39:23.048Z,5.10
2022-12-08T00:42:14.405Z,4.80
2022-12-08T00:44:43.452Z,5.33
2022-12-08T00:47:11.981Z,5.20
2022-12-08T00:49:40.259Z,6.47
2022-12-08T00:52:08.480Z,5.80
2022-12-08T00:54:38.179Z,6.00
2022-12-08T00:57:06.338Z,6.83
2022-12-08T00:59:34.584Z,7.40
2022-12-08T01:02:02.801Z,6.57
2022-12-08T01:04:30.958Z,7.87
2022-12-08T01:06:59.120Z,6.93
2022-12-08T01:09:27.290Z,6.77
2022-12-08T01:11:57.101Z,6.97
2022-12-08T01:14:25.276Z,6.00
2022-12-08T01:16:53.578Z,7.37
2022-12-08T01:19:21.817Z,7.83
2022-12-08T01:21:49.990Z,7.63
2022-12-08T01:24:20.299Z,7.50
2022-12-08T01:26:49.545Z,6.87
2022-12-08T01:29:19.236Z,7.73
2022-12-08T01:31:47.433Z,7.93
2022-12-08T01:34:15.757Z,7.40
2022-12-08T01:36:44.505Z,6.23
2022-12-08T01:39:16.317Z,6.73
2022-12-08T01:41:45.333Z,7.27
2022-12-08T01:44:54.566Z,7.57
2022-12-08T01:47:26.566Z,7.10
2022-12-08T01:49:54.815Z,7.30
2022-12-08T01:52:27.877Z,7.47
2022-12-08T01:55:00.962Z,6.33
2022-12-08T01:57:32.383Z,7.33
2022-12-08T02:00:06.844Z,7.57
2022-12-08T02:02:47.280Z,6.70
2022-12-08T02:05:17.366Z,6.97
2022-12-08T02:07:45.757Z,6.90
2022-12-08T02:10:20.310Z,6.00
2022-12-08T02:12:50.348Z,5.10
2022-12-08T02:15:20.386Z,6.50
2022-12-08T02:18:02.220Z,6.03
2022-12-08T02:20:42.553Z,5.60
2022-12-08T02:23:22.323Z,5.93
2022-12-08T02:26:21.343Z,6.90
2022-12-08T02:29:13.377Z,5.87
2022-12-08T02:31:59.059Z,5.27
2022-12-08T02:34:32.708Z,5.80
2022-12-08T02:37:10.132Z,5.30
2022-12-08T02:39:51.866Z,5.63
2022-12-08T02:42:28.662Z,5.87
2022-12-08T02:45:03.214Z,6.57
2022-12-08T02:47:33.117Z,6.07
2022-12-08T02:50:03.141Z,6.73
2022-12-08T02:52:41.259Z,6.30
2022-12-08T02:55:16.244Z,5.03
2022-12-08T02:57:57.524Z,4.87
2022-12-08T03:00:28.622Z,6.20
2022-12-08T03:03:10.332Z,5.27
2022-12-08T03:05:56.916Z,5.20
2022-12-08T03:08:33.759Z,4.40
2022-12-08T03:11:05.953Z,6.87
2022-12-08T03:13:42.045Z,5.17
2022-12-08T03:16:13.765Z,5.00
2022-12-08T03:18:46.251Z,6.43
2022-12-08T03:21:18.175Z,4.97
2022-12-08T03:23:49.307Z,4.80
2022-12-08T03:26:21.132Z,4.87
2022-12-08T03:28:50.313Z,3.90
2022-12-08T03:31:20.796Z,3.90
2022-12-08T03:33:53.428Z,4.20
2022-12-08T03:36:23.485Z,4.27
2022-12-08T03:38:54.630Z,4.90
2022-12-08T03:41:23.721Z,5.30
2022-12-08T03:43:53.682Z,4.10
2022-12-08T03:48:51.096Z,3.67
2022-12-08T03:51:19.275Z,4.10
2022-12-08T03:53:49.374Z,5.33
2022-12-08T03:56:23.485Z,4.77
2022-12-08T03:58:51.668Z,5.60
2022-12-08T04:01:20.032Z,6.47
2022-12-08T04:03:48.669Z,6.27
2022-12-08T04:06:17.436Z,5.63
2022-12-08T04:08:45.619Z,5.53
2022-12-08T04:11:15.213Z,6.20
2022-12-08T04:13:44.216Z,5.30
2022-12-08T04:16:16.891Z,5.50
2022-12-08T04:18:45.079Z,5.60
2022-12-08T04:21:13.913Z,4.77
2022-12-08T04:23:42.426Z,5.33
2022-12-08T04:26:10.661Z,5.03
2022-12-08T04:28:40.153Z,6.73
2022-12-08T04:31:08.712Z,5.47
2022-12-08T04:33:36.948Z,6.43
2022-12-08T04:36:06.551Z,5.60
2022-12-08T04:38:35.141Z,6.43
2022-12-08T04:41:03.365Z,5.77
2022-12-08T04:43:31.493Z,5.27
2022-12-08T04:46:00.985Z,5.50
2022-12-08T04:48:29.317Z,5.00
2022-12-08T04:50:57.443Z,4.33
2022-12-08T04:53:26.702Z,4.87
2022-12-08T04:55:54.957Z,5.37
2022-12-08T04:58:23.225Z,4.90
2022-12-08T05:00:51.889Z,4.60
2022-12-08T05:03:28.093Z,4.67
2022-12-08T05:05:57.035Z,4.97
2022-12-08T05:08:25.298Z,5.20
2022-12-08T05:10:53.611Z,4.00
2022-12-08T05:13:21.739Z,4.80
2022-12-08T05:15:49.890Z,6.20
2022-12-08T05:18:18.076Z,5.37
2022-12-08T05:20:47.522Z,5.60
2022-12-08T05:23:15.660Z,5.47
2022-12-08T05:25:43.789Z,4.47
2022-12-08T05:28:40.263Z,5.50
2022-12-08T05:30:59.987Z,4.97
2022-12-08T05:33:28.124Z,5.60
2022-12-08T05:35:57.584Z,5.97
2022-12-08T05:38:25.727Z,5.60
2022-12-08T05:40:53.873Z,6.77
2022-12-08T05:43:22.280Z,6.00
2022-12-08T05:45:50.474Z,6.50
2022-12-08T05:48:18.641Z,7.00
2022-12-08T05:50:48.013Z,5.87
2022-12-08T05:53:19.189Z,6.40
2022-12-08T05:55:47.897Z,6.90
2022-12-08T05:58:18.928Z,6.17
2022-12-08T06:00:48.040Z,6.37
2022-12-08T06:03:18.137Z,7.20
2022-12-08T06:05:47.971Z,6.23
2022-12-08T06:08:16.203Z,6.10
2022-12-08T06:10:46.666Z,7.67
2022-12-08T06:13:15.278Z,7.33
2022-12-08T06:15:43.872Z,7.57
2022-12-08T06:18:12.478Z,7.23
2022-12-08T06:20:40.578Z,7.90
2022-12-08T06:23:08.698Z,7.37
2022-12-08T06:25:36.778Z,7.17
2022-12-08T06:28:07.412Z,7.40
2022-12-08T06:30:35.515Z,8.60
2022-12-08T06:33:03.631Z,7.03
2022-12-08T06:35:31.718Z,8.60
2022-12-08T06:37:59.836Z,8.43
2022-12-08T06:40:27.982Z,8.00
2022-12-08T06:42:56.087Z,7.37
2022-12-08T06:45:25.511Z,8.70
2022-12-08T06:47:53.669Z,7.53
2022-12-08T06:50:22.052Z,8.90
2022-12-08T06:53:01.051Z,8.43
2022-12-08T06:58:21.674Z,8.57
2022-12-08T07:00:51.306Z,9.00
2022-12-08T07:03:19.678Z,8.70
2022-12-08T07:05:47.902Z,8.93
2022-12-08T07:08:16.188Z,9.13
2022-12-08T07:10:44.420Z,10.20
2022-12-08T07:13:12.595Z,9.80
2022-12-08T07:15:40.729Z,9.53
2022-12-08T07:18:10.218Z,9.70
2022-12-08T07:20:38.681Z,10.07
2022-12-08T07:23:07.099Z,10.53
2022-12-08T07:25:35.225Z,9.47
2022-12-08T07:28:09.187Z,11.57
2022-12-08T07:30:37.437Z,10.63
2022-12-08T07:33:06.514Z,10.40
2022-12-08T07:35:36.001Z,10.83
2022-12-08T07:38:04.301Z,11.33
2022-12-08T07:40:32.431Z,10.90
2022-12-08T07:43:00.561Z,10.97
2022-12-08T07:45:31.694Z,11.20
2022-12-08T07:48:00.183Z,11.40
2022-12-08T07:50:28.336Z,11.00
2022-12-08T07:52:57.899Z,10.17
2022-12-08T07:55:26.826Z,11.03
2022-12-08T07:57:55.078Z,11.57
2022-12-08T08:00:23.406Z,10.53
2022-12-08T08:02:52.058Z,11.07
2022-12-08T08:05:20.699Z,11.70
2022-12-08T08:07:48.904Z,10.83
2022-12-08T08:10:18.880Z,10.80
2022-12-08T08:12:47.588Z,10.10
2022-12-08T08:15:15.813Z,10.77
2022-12-08T08:17:43.945Z,10.30
2022-12-08T08:20:13.005Z,10.87
2022-12-08T08:22:41.120Z,10.70
2022-12-08T08:25:10.083Z,9.53
2022-12-08T08:27:39.682Z,13.00
2022-12-08T08:30:09.733Z,10.03
2022-12-08T08:32:38.549Z,10.97
2022-12-08T08:35:07.687Z,11.90
2022-12-08T08:37:35.841Z,10.07
2022-12-08T08:40:05.368Z,10.07
2022-12-08T08:42:33.925Z,11.03
2022-12-08T08:45:03.448Z,10.10
2022-12-08T08:47:31.597Z,12.13
2022-12-08T08:49:59.713Z,10.30
2022-12-08T08:52:28.124Z,11.20
2022-12-08T08:54:56.735Z,10.37
2022-12-08T08:57:26.074Z,9.87
2022-12-08T08:59:54.944Z,10.10
2022-12-08T09:02:26.741Z,10.67
2022-12-08T09:04:54.899Z,10.70
2022-12-08T09:07:23.136Z,10.03
2022-12-08T09:09:51.314Z,11.00
2022-12-08T09:12:19.435Z,12.63
2022-12-08T09:14:47.632Z,12.83
2022-12-08T09:17:16.261Z,12.07
2022-12-08T09:19:45.937Z,10.30
2022-12-08T09:22:16.478Z,11.97
2022-12-08T09:24:44.664Z,11.43
2022-12-08T09:27:12.807Z,10.63
2022-12-08T09:29:40.922Z,11.63
2022-12-08T09:32:09.068Z,12.67
2022-12-08T09:34:37.535Z,12.00
2022-12-08T09:37:07.068Z,11.57
2022-12-08T09:39:35.464Z,11.90
2022-12-08T09:42:06.795Z,10.33
2022-12-08T09:44:51.611Z,10.77
2022-12-08T09:47:23.680Z,10.43
2022-12-08T09:49:58.581Z,9.70
2022-12-08T09:52:33.595Z,10.00
2022-12-08T09:55:10.661Z,11.63
2022-12-08T09:57:39.068Z,10.17
2022-12-08T10:00:13.205Z,12.80
2022-12-08T10:02:47.015Z,9.87
2022-12-08T10:05:15.824Z,9.80
2022-12-08T10:07:49.413Z,9.57
2022-12-08T10:10:32.683Z,9.60
2022-12-08T10:13:08.387Z,11.00
2022-12-08T10:15:45.288Z,11.20
2022-12-08T10:18:18.644Z,11.80
2022-12-08T10:20:49.064Z,10.13
2022-12-08T10:23:28.451Z,11.40
2022-12-08T10:26:01.845Z,9.93
2022-12-08T10:28:30.270Z,11.23
2022-12-08T10:30:58.471Z,11.80
2022-12-08T10:33:29.109Z,12.43
2022-12-08T10:36:02.864Z,11.63
2022-12-08T10:38:33.488Z,11.63
2022-12-08T10:41:07.272Z,12.37
2022-12-08T10:43:37.758Z,11.83
2022-12-08T10:46:11.879Z,13.20
2022-12-08T10:48:49.426Z,11.33
2022-12-08T10:51:30.413Z,12.47
2022-12-08T10:53:59.955Z,12.00
2022-12-08T10:56:30.407Z,12.97
2022-12-08T10:59:13.545Z,11.30
2022-12-08T11:01:43.218Z,11.70
2022-12-08T11:04:16.274Z,11.67
2022-12-08T11:06:44.969Z,10.60
2022-12-08T11:09:38.088Z,11.50
2022-12-08T11:12:13.878Z,11.40
2022-12-08T11:14:51.132Z,11.60
2022-12-08T11:17:26.519Z,13.60
2022-12-08T11:20:01.149Z,9.70
2022-12-08T11:22:33.339Z,10.77
2022-12-08T11:25:11.366Z,9.57
2022-12-08T11:27:43.421Z,11.20
2022-12-08T11:30:16.951Z,9.27
2022-12-08T11:32:46.803Z,9.97
2022-12-08T11:35:22.248Z,10.23
2022-12-08T11:37:50.383Z,10.40
2022-12-08T11:40:25.397Z,10.07
2022-12-08T11:43:01.696Z,10.47
2022-12-08T11:45:34.708Z,10.40
2022-12-08T11:48:11.584Z,9.53
2022-12-08T11:50:45.806Z,9.90
2022-12-08T11:53:19.199Z,9.33
2022-12-08T11:55:54.556Z,9.40
2022-12-08T11:58:27.882Z,10.20
2022-12-08T12:00:56.575Z,11.63
2022-12-08T12:03:32.286Z,9.87
2022-12-08T12:09:33.697Z,10.03
2022-12-08T12:12:16.590Z,9.10
2022-12-08T12:15:13.780Z,8.77
2022-12-08T12:17:47.104Z,10.90
2022-12-08T12:20:20.915Z,9.20
2022-12-08T12:22:56.600Z,9.57
2022-12-08T12:25:27.420Z,11.00
2022-12-08T12:28:02.432Z,9.13
2022-12-08T12:30:50.548Z,9.87
2022-12-08T12:33:19.624Z,9.57
2022-12-08T12:35:48.977Z,10.23
2022-12-08T12:38:41.773Z,8.47
2022-12-08T12:41:12.941Z,8.20
2022-12-08T12:44:10.041Z,9.37
2022-12-08T12:46:56.379Z,9.67
2022-12-08T12:49:53.473Z,10.33
2022-12-08T12:52:44.033Z,10.27
2022-12-08T12:55:52.114Z,8.87
2022-12-08T12:58:24.408Z,10.13
2022-12-08T13:01:31.731Z,10.53
2022-12-08T13:04:06.179Z,9.90
2022-12-08T13:06:38.827Z,10.03
2022-12-08T13:09:08.293Z,9.70
2022-12-08T13:11:52.632Z,10.13
2022-12-08T13:14:33.076Z,10.20
2022-12-08T13:17:06.157Z,9.90
2022-12-08T13:19:38.129Z,10.10
2022-12-08T13:22:39.584Z,11.23
2022-12-08T13:25:48.597Z,11.23
2022-12-08T13:28:29.204Z,9.83
2022-12-08T13:30:59.548Z,8.70
2022-12-08T13:33:32.394Z,9.37
2022-12-08T13:36:08.776Z,11.67
2022-12-08T13:38:39.645Z,8.70
2022-12-08T13:41:15.266Z,8.40
2022-12-08T13:44:20.159Z,8.40
2022-12-08T13:56:51.237Z,13.10
2022-12-08T13:58:18.763Z,12.00
2022-12-08T14:00:57.330Z,9.63
2022-12-08T14:03:25.836Z,11.27
2022-12-08T14:06:12.956Z,9.77
2022-12-08T14:09:00.352Z,16.73
2022-12-08T14:11:36.338Z,13.10
2022-12-08T14:14:06.944Z,12.20
2022-12-08T14:16:39.524Z,12.10
2022-12-08T14:19:16.967Z,11.50
2022-12-08T14:21:55.000Z,11.40
2022-12-08T14:24:24.013Z,10.20
2022-12-08T14:26:54.725Z,11.80
2022-12-08T14:29:44.739Z,11.83
2022-12-08T14:32:26.048Z,10.80
2022-12-08T14:34:56.069Z,12.67
2022-12-08T14:37:28.530Z,10.20
2022-12-08T14:40:01.820Z,10.20
2022-12-08T14:42:30.928Z,10.90
2022-12-08T14:45:02.964Z,10.90
2022-12-08T14:47:33.309Z,10.57
2022-12-08T14:50:03.033Z,10.17
2022-12-08T14:52:33.541Z,10.63
2022-12-08T14:55:01.730Z,11.13
2022-12-08T14:57:36.290Z,10.10
2022-12-08T15:00:11.126Z,11.40
2022-12-08T15:02:46.535Z,11.37
2022-12-08T15:05:19.295Z,10.33
2022-12-08T15:07:51.528Z,11.13
2022-12-08T15:10:23.484Z,11.70
2022-12-08T15:13:00.497Z,8.57
2022-12-08T15:15:30.275Z,11.47
2022-12-08T15:18:13.147Z,9.93
2022-12-08T15:20:43.997Z,10.70
2022-12-08T15:23:21.663Z,10.20
2022-12-08T15:25:50.352Z,9.27
2022-12-08T15:28:23.994Z,10.20
2022-12-08T15:30:56.302Z,8.80
2022-12-08T15:33:24.523Z,8.70
2022-12-08T15:35:53.350Z,6.07
2022-12-08T15:38:25.327Z,6.20
2022-12-08T15:40:53.501Z,5.47
2022-12-08T15:43:22.696Z,4.80
2022-12-08T15:45:58.974Z,4.40
2022-12-08T15:48:29.862Z,4.40
2022-12-08T15:50:58.378Z,4.43
2022-12-08T15:53:27.881Z,4.43
2022-12-08T15:58:53.411Z,4.50
2022-12-08T16:01:22.831Z,5.10
2022-12-08T16:09:34.279Z,8.37
2022-12-08T16:12:20.434Z,11.70
2022-12-08T16:17:38.534Z,12.97
2022-12-08T16:20:09.727Z,15.37
2022-12-08T16:22:59.654Z,12.37
2022-12-08T16:25:36.348Z,9.47
2022-12-08T16:28:53.423Z,8.73
2022-12-08T16:31:02.866Z,8.40
2022-12-08T16:33:31.458Z,6.90
2022-12-08T16:35:59.594Z,5.27
2022-12-08T16:38:27.818Z,6.40
2022-12-08T16:41:14.791Z,6.13
2022-12-08T16:43:43.087Z,4.67
2022-12-08T16:46:19.027Z,5.67
2022-12-08T16:48:47.232Z,5.30
2022-12-08T16:51:26.611Z,6.70
2022-12-08T16:53:55.478Z,6.83
2022-12-08T16:56:30.627Z,5.60
2022-12-08T16:59:01.837Z,5.57
2022-12-08T17:01:30.378Z,4.90
2022-12-08T17:04:29.781Z,5.20
2022-12-08T17:06:47.054Z,5.93
2022-12-08T17:09:15.253Z,4.93
2022-12-08T17:11:45.098Z,5.53
2022-12-08T17:14:14.230Z,5.50
2022-12-08T17:16:42.552Z,7.97
2022-12-08T17:19:11.074Z,6.27
2022-12-08T17:21:39.219Z,6.17
2022-12-08T17:24:07.517Z,5.67
2022-12-08T17:26:35.742Z,5.87
2022-12-08T17:29:05.641Z,6.27
2022-12-08T17:31:34.598Z,5.30
2022-12-08T17:34:03.959Z,5.40
2022-12-08T17:36:32.587Z,7.10
2022-12-08T17:39:01.494Z,6.20
2022-12-08T17:41:30.353Z,6.63
2022-12-08T17:43:58.518Z,6.93
2022-12-08T17:46:28.042Z,4.47
2022-12-08T17:48:56.263Z,7.13
2022-12-08T17:51:24.393Z,7.73
2022-12-08T17:53:52.522Z,6.70
2022-12-08T17:56:22.284Z,8.30
2022-12-08T17:58:54.566Z,6.00
2022-12-08T18:01:24.088Z,6.77
2022-12-08T18:03:53.606Z,6.40
2022-12-08T18:06:24.654Z,8.40
2022-12-08T18:08:55.480Z,7.13
2022-12-08T18:11:23.936Z,10.00
2022-12-08T18:13:53.048Z,9.23
2022-12-08T18:16:23.066Z,6.60
2022-12-08T18:18:52.818Z,8.67
2022-12-08T18:21:23.671Z,6.70
2022-12-08T18:23:52.664Z,5.87
2022-12-08T18:26:21.571Z,6.50
2022-12-08T18:28:49.732Z,7.50
2022-12-08T18:31:19.614Z,6.93
2022-12-08T18:33:49.922Z,8.80
2022-12-08T18:36:22.057Z,9.67
2022-12-08T18:38:51.276Z,10.03
2022-12-08T18:41:23.348Z,10.27
2022-12-08T18:43:51.797Z,10.23
2022-12-08T18:46:20.130Z,8.40
2022-12-08T18:48:50.127Z,10.30
2022-12-08T18:51:21.985Z,8.80
2022-12-08T18:53:51.134Z,10.20
2022-12-08T18:56:23.120Z,9.07
2022-12-08T18:58:51.328Z,10.30
2022-12-08T19:01:20.066Z,8.90
2022-12-08T19:04:12.078Z,9.33
2022-12-08T19:06:40.005Z,9.63
2022-12-08T19:09:08.890Z,8.67
2022-12-08T19:11:37.171Z,8.60
2022-12-08T19:14:05.755Z,8.87
2022-12-08T19:16:34.147Z,7.43
2022-12-08T19:19:02.363Z,9.00
2022-12-08T19:21:30.538Z,7.73
2022-12-08T19:24:00.126Z,8.63
2022-12-08T19:26:29.282Z,8.53
2022-12-08T19:28:58.764Z,8.77
2022-12-08T19:31:26.997Z,8.40
2022-12-08T19:33:55.520Z,8.97
2022-12-08T19:36:24.853Z,8.60
2022-12-08T19:39:10.864Z,7.13
2022-12-08T19:41:58.086Z,8.00
2022-12-08T19:44:45.967Z,9.20
2022-12-08T19:47:14.360Z,10.07
2022-12-08T19:49:42.583Z,10.70
2022-12-08T19:52:10.774Z,9.80
2022-12-08T19:54:39.055Z,10.70
2022-12-08T19:57:08.536Z,8.10
2022-12-08T19:59:36.682Z,11.10
2022-12-08T20:02:05.220Z,9.47
2022-12-08T20:04:33.473Z,9.50
2022-12-08T20:07:01.619Z,10.57
2022-12-08T20:09:30.506Z,11.10
2022-12-08T20:11:58.598Z,9.33
2022-12-08T20:14:28.058Z,10.10
2022-12-08T20:16:56.495Z,10.50
2022-12-08T20:19:25.868Z,12.37
2022-12-08T20:21:54.038Z,11.33
2022-12-08T20:24:22.144Z,10.50
2022-12-08T20:26:50.242Z,12.10
2022-12-08T20:29:18.833Z,15.93
2022-12-08T20:31:48.399Z,14.17
2022-12-08T20:34:17.735Z,14.80
2022-12-08T20:36:46.572Z,15.27
2022-12-08T20:39:17.270Z,14.63
2022-12-08T20:41:46.758Z,16.23
2022-12-08T20:44:14.922Z,17.13
2022-12-08T20:46:49.036Z,15.27
2022-12-08T20:49:18.975Z,14.00
2022-12-08T20:51:47.271Z,10.93
2022-12-08T20:54:15.492Z,12.20
2022-12-08T20:56:48.302Z,13.20
2022-12-08T20:59:18.147Z,11.33
2022-12-08T21:01:46.496Z,11.70
2022-12-08T21:04:14.948Z,13.83
2022-12-08T21:06:44.625Z,12.93
2022-12-08T21:09:12.905Z,12.43
2022-12-08T21:11:41.296Z,12.20
2022-12-08T21:14:09.446Z,12.13
2022-12-08T21:16:37.899Z,14.20
2022-12-08T21:19:06.626Z,12.67
2022-12-08T21:21:35.032Z,12.83
2022-12-08T21:24:05.726Z,12.70
2022-12-08T21:26:33.893Z,14.87
2022-12-08T21:29:02.316Z,12.00
2022-12-08T21:31:31.980Z,12.50
2022-12-08T21:34:00.676Z,13.20
2022-12-08T21:36:31.071Z,12.77
2022-12-08T21:39:01.106Z,15.20
2022-12-08T21:41:49.107Z,14.70
2022-12-08T21:44:18.919Z,13.53
2022-12-08T21:46:47.581Z,15.83
2022-12-08T21:49:16.382Z,16.70
2022-12-08T21:51:44.727Z,14.43
2022-12-08T21:54:18.618Z,17.53
2022-12-08T21:56:50.172Z,17.77
2022-12-08T21:59:19.779Z,16.67
2022-12-08T22:01:48.532Z,15.20
2022-12-08T22:04:18.369Z,16.23
2022-12-08T22:06:47.021Z,15.07
2022-12-08T22:09:15.573Z,15.27
2022-12-08T22:11:45.215Z,17.23
2022-12-08T22:14:15.443Z,14.40
2022-12-08T22:16:44.255Z,12.00
2022-12-08T22:19:13.167Z,14.13
2022-12-08T22:21:41.606Z,11.90
2022-12-08T22:24:10.326Z,10.90
2022-12-08T22:26:38.620Z,10.00
2022-12-08T22:29:07.234Z,9.87
2022-12-08T22:31:37.286Z,10.60
2022-12-08T22:34:06.272Z,9.40
2022-12-08T22:36:35.103Z,9.83
2022-12-08T22:39:05.307Z,10.50
2022-12-08T22:41:34.116Z,8.97
2022-12-08T22:44:02.413Z,8.73
2022-12-08T22:46:31.653Z,8.60
2022-12-08T22:49:01.718Z,9.57
2022-12-08T22:51:29.976Z,10.87
2022-12-08T22:53:58.236Z,10.17
2022-12-08T22:56:26.500Z,11.17
2022-12-08T22:58:54.745Z,10.57
2022-12-08T23:01:26.690Z,9.40
2022-12-08T23:03:55.080Z,9.77
2022-12-08T23:06:24.807Z,9.07
2022-12-08T23:08:53.717Z,8.70
2022-12-08T23:11:24.439Z,11.10
2022-12-08T23:13:53.259Z,9.23
2022-12-08T23:16:21.518Z,9.60
2022-12-08T23:18:50.029Z,9.83
2022-12-08T23:21:20.371Z,10.03
2022-12-08T23:23:50.066Z,9.70
2022-12-08T23:26:20.796Z,8.73
2022-12-08T23:28:49.617Z,10.13
2022-12-08T23:31:18.862Z,10.67
2022-12-08T23:33:47.125Z,10.23
2022-12-08T23:36:16.565Z,9.50
2022-12-08T23:38:45.138Z,9.30
2022-12-08T23:41:16.598Z,10.30
2022-12-08T23:43:46.318Z,8.63
2022-12-08T23:46:15.379Z,9.37
2022-12-08T23:48:44.245Z,9.03
2022-12-08T23:51:13.109Z,9.87
2022-12-08T23:53:41.698Z,10.47
2022-12-08T23:56:12.313Z,9.03
2022-12-08T23:58:43.151Z,11.90
